MDT,Max TemperatureF,Mean TemperatureF,Min TemperatureF,Max Dew PointF,MeanDew PointF,Min DewpointF,Max Humidity, Mean Humidity, Min Humidity, Max Sea Level PressureIn, Mean Sea Level PressureIn, Min Sea Level PressureIn, Max VisibilityMiles, Mean VisibilityMiles, Min VisibilityMiles, Max Wind SpeedMPH, Mean Wind SpeedMPH, Max Gust SpeedMPH,PrecipitationIn, CloudCover, Events, WindDirDegrees
2013-3-1,54,39,24,20,16,10,68,44,19,30.34,30.27,30.20,10,10,9,30,12,38,0.00,4,,316
2013-3-2,67,48,29,23,20,18,58,37,16,30.31,30.18,30.01,10,10,10,23,10,31,0.00,1,,288
2013-3-3,71,48,25,22,20,16,74,43,12,29.99,29.72,29.55,10,10,10,15,7,18,0.00,0,,264
2013-3-4,53,36,18,30,25,17,100,65,30,30.26,29.92,29.57,10,7,1,32,10,43,0.01,4,Snow,359
2013-3-5,47,29,10,22,15,7,84,58,31,30.46,30.34,30.22,10,10,10,17,8,24,0.00,0,,192
2013-3-6,66,42,17,25,20,14,84,52,19,30.21,29.99,29.81,10,10,10,24,5,30,0.00,0,,114
2013-3-7,77,48,19,28,18,4,84,45,6,29.90,29.83,29.76,10,10,0,22,7,25,0.00,0,,292
2013-3-8,69,50,30,35,28,23,78,49,19,29.91,29.71,29.51,10,10,9,36,9,44,0.00,1,,205
2013-3-9,54,43,31,37,31,24,96,73,50,29.98,29.67,29.45,10,4,0,25,17,36,0.02,7,Fog-Rain-Snow,343
2013-3-10,39,30,20,21,17,12,84,59,34,30.15,30.11,30.03,10,10,10,32,15,39,0.00,1,,320
2013-3-11,62,41,20,31,22,16,84,52,20,30.11,29.99,29.86,10,10,10,23,10,28,0.00,0,,270
2013-3-12,50,40,30,30,23,16,85,58,31,30.34,30.25,30.12,10,10,10,13,5,16,0.00,5,,330
2013-3-13,68,46,24,30,25,20,88,52,16,30.28,30.21,30.16,10,10,10,14,5,16,0.00,0,,192
2013-3-14,75,51,27,29,24,20,85,49,13,30.24,30.15,30.04,10,10,10,14,6,20,0.00,0,,244
2013-3-15,85,59,33,28,20,10,69,38,6,30.01,29.84,29.70,10,10,10,20,7,26,0.00,0,,272
2013-3-16,58,48,37,34,25,19,65,45,24,29.97,29.87,29.70,10,10,10,20,9,23,0.00,2,,85
2013-3-17,68,47,26,37,28,21,81,52,22,29.86,29.66,29.42,10,10,10,28,13,35,0.00,1,,129
2013-3-18,56,39,21,18,11,4,74,44,14,29.99,29.90,29.77,10,10,10,21,7,28,0.00,0,,146
2013-3-19,56,38,20,19,7,-3,62,36,9,30.31,30.10,29.90,10,10,10,23,7,35,0.00,0,,23
2013-3-20,64,38,12,26,16,3,67,42,17,30.36,30.06,29.65,10,10,10,26,9,33,0.00,0,,175
2013-3-21,60,42,24,32,24,15,82,55,27,29.79,29.61,29.48,10,10,10,21,9,28,0.00,2,,67
2013-3-22,58,43,27,30,25,17,92,57,21,29.88,29.77,29.58,10,10,8,29,12,35,0.00,5,,169
2013-3-23,39,29,19,30,25,17,92,78,64,30.24,29.90,29.65,10,3,0,33,19,40,0.07,8,Fog-Rain-Snow,51
2013-3-24,36,20,3,21,14,-1,87,67,47,30.32,30.23,30.10,10,10,9,14,6,17,0.00,3,,307
2013-3-25,40,27,14,16,11,8,80,54,27,30.40,30.35,30.24,10,10,10,25,7,32,0.00,2,,341
2013-3-26,60,37,13,23,16,10,88,54,19,30.37,30.09,29.84,10,10,10,17,7,21,0.00,0,,109
2013-3-27,65,46,27,29,25,21,84,53,22,30.10,30.00,29.86,10,10,8,18,7,25,0.00,0,,51
2013-3-28,70,47,24,35,29,22,88,55,22,30.12,30.05,29.96,10,10,8,15,6,25,0.00,0,,145
2013-3-29,76,53,29,48,33,22,85,50,15,30.09,30.00,29.88,10,10,6,18,5,25,0.00,1,,190
2013-3-30,74,55,36,45,33,23,92,54,16,30.06,29.96,29.85,10,10,7,32,8,44,0.03,2,Rain,6
2013-3-31,74,54,33,44,32,24,92,54,16,30.10,29.96,29.80,10,10,10,20,8,24,0.00,0,,200